createdAt,value
2022-08-02T00:03:09.861Z,3.1
2022-08-02T00:08:43.419Z,2.9
2022-08-02T00:14:16.999Z,2.8
2022-08-02T00:19:50.522Z,2.8
2022-08-02T00:25:15.923Z,2.9
2022-08-02T00:30:49.470Z,2.7
2022-08-02T00:36:23.037Z,2.4
2022-08-02T00:41:56.606Z,2.5
2022-08-02T00:47:30.145Z,2.4
2022-08-02T00:53:03.698Z,2.3
2022-08-02T00:58:37.265Z,2.2
2022-08-02T01:04:10.813Z,2
2022-08-02T01:09:44.376Z,2
2022-08-02T01:14:49.220Z,1.8
2022-08-02T01:20:22.629Z,1.7
2022-08-02T01:25:47.995Z,1.7
2022-08-02T01:31:21.559Z,1.7
2022-08-02T01:36:55.112Z,1.5
2022-08-02T01:42:28.663Z,1.4
2022-08-02T01:48:02.227Z,1.4
2022-08-02T01:53:35.784Z,1.5
2022-08-02T01:59:09.336Z,1.3
2022-08-02T02:04:42.898Z,1.2
2022-08-02T02:10:16.476Z,1.3
2022-08-02T02:15:50.046Z,1.2
2022-08-02T02:21:23.589Z,1.1
2022-08-02T02:26:52.360Z,1.1
2022-08-02T02:32:22.483Z,1.2
2022-08-02T02:37:56.056Z,1.1
2022-08-02T02:43:29.623Z,1.2
2022-08-02T02:49:03.238Z,1.1
2022-08-02T02:54:36.750Z,1
2022-08-02T03:00:10.279Z,1.1
2022-08-02T03:05:43.869Z,1.2
2022-08-02T03:11:17.401Z,1.1
2022-08-02T03:16:50.953Z,1.1
2022-08-02T03:22:24.530Z,1.1
2022-08-02T03:27:49.917Z,1.2
2022-08-02T03:33:23.650Z,1.1
2022-08-02T03:38:57.005Z,1
2022-08-02T03:44:01.682Z,0.9
2022-08-02T03:49:35.323Z,1
2022-08-02T03:55:08.814Z,0.9
2022-08-02T04:00:42.452Z,1.1
2022-08-02T04:06:15.945Z,0.7
2022-08-02T04:11:49.481Z,0.8
2022-08-02T04:17:23.070Z,1.1
2022-08-02T04:22:56.625Z,0.6
2022-08-02T04:28:27.681Z,0.3
2022-08-02T04:33:55.540Z,0.1
2022-08-02T04:39:29.091Z,0
2022-08-02T04:45:02.647Z,0
2022-08-02T04:50:36.230Z,0
2022-08-02T04:56:09.816Z,0
2022-08-02T05:01:43.341Z,0
2022-08-02T05:07:16.871Z,0
2022-08-02T05:12:50.425Z,0
2022-08-02T05:18:24.030Z,0
2022-08-02T05:23:57.577Z,0
2022-08-02T05:29:22.938Z,0
2022-08-02T05:34:56.527Z,0
2022-08-02T05:40:30.041Z,0
2022-08-02T05:46:03.600Z,0
2022-08-02T05:51:37.188Z,0.6
2022-08-02T05:57:10.703Z,1.6
2022-08-02T06:02:44.268Z,1.8
2022-08-02T06:08:17.850Z,2.4
2022-08-02T06:13:22.544Z,2.3
2022-08-02T06:18:56.093Z,2.4
2022-08-02T06:24:29.651Z,3.1
2022-08-02T06:29:55.021Z,3.3
2022-08-02T06:35:28.557Z,4.3
2022-08-02T06:41:02.115Z,5.2
2022-08-02T06:47:10.194Z,6.8
2022-08-02T06:52:09.462Z,7.7
2022-08-02T06:57:42.835Z,9
2022-08-02T07:03:16.380Z,8.8
2022-08-02T07:09:11.323Z,8.6
2022-08-02T07:14:23.502Z,8.9
2022-08-02T07:19:57.058Z,10.2
2022-08-02T07:26:02.655Z,12
2022-08-02T07:30:55.970Z,13
2022-08-02T07:36:29.518Z,14
2022-08-02T07:42:03.098Z,14.9
2022-08-02T07:47:36.648Z,14.9
2022-08-02T07:53:10.191Z,14.6
2022-08-02T07:58:43.754Z,16.4
2022-08-02T08:04:17.326Z,16.8
2022-08-02T08:09:51.190Z,18.2
2022-08-02T08:15:24.438Z,18.8
2022-08-02T08:20:58.023Z,17.8
2022-08-02T08:26:31.557Z,17.3
2022-08-02T08:31:56.942Z,18.7
2022-08-02T08:37:30.472Z,18.1
2022-08-02T08:42:35.192Z,18.4
2022-08-02T08:48:08.741Z,19
2022-08-02T08:53:42.291Z,19
2022-08-02T08:59:15.858Z,19.7
2022-08-02T09:04:54.960Z,20.8
2022-08-02T09:10:22.999Z,20.9
2022-08-02T09:15:56.588Z,21.3
2022-08-02T09:21:30.241Z,21.6
2022-08-02T09:27:03.677Z,21.5
2022-08-02T09:32:29.060Z,21.4
2022-08-02T09:38:02.605Z,21.8
2022-08-02T09:43:36.154Z,5.7
2022-08-02T09:49:09.853Z,21.4
2022-08-02T09:54:43.289Z,20.8
2022-08-02T10:00:27.010Z,21.9
2022-08-02T10:05:55.448Z,21.5
2022-08-02T10:11:23.934Z,21.6
2022-08-02T10:17:34.581Z,21.4
2022-08-02T10:23:08.143Z,21.6
2022-08-02T10:28:41.673Z,20.2
2022-08-02T10:34:07.064Z,20.2
2022-08-02T10:39:40.609Z,20.7
2022-08-02T10:45:14.190Z,20.4
2022-08-02T10:50:47.748Z,20.5
2022-08-02T10:56:21.294Z,20.9
2022-08-02T11:01:54.851Z,20.5
2022-08-02T11:07:28.413Z,20.6
2022-08-02T11:12:33.120Z,20.1
2022-08-02T11:18:06.683Z,19.6
2022-08-02T11:23:44.635Z,19.7
2022-08-02T11:29:05.604Z,19.5
2022-08-02T11:34:39.146Z,19.7
2022-08-02T11:40:18.937Z,18.6
2022-08-02T11:45:46.295Z,19.9
2022-08-02T11:51:19.796Z,18.8
2022-08-02T11:56:53.377Z,19.3
2022-08-02T12:02:26.932Z,20
2022-08-02T12:08:00.479Z,18.6
2022-08-02T12:13:34.068Z,19.6
2022-08-02T12:19:07.621Z,19.5
2022-08-02T12:24:41.172Z,19.1
2022-08-02T12:30:10.628Z,19.2
2022-08-02T12:36:21.227Z,19.2
2022-08-02T12:41:55.307Z,19.2
2022-08-02T12:47:31.338Z,18.6
2022-08-02T12:53:01.916Z,19.8
2022-08-02T12:58:35.472Z,19
2022-08-02T13:04:13.645Z,19.4
2022-08-02T13:09:42.584Z,19.5
2022-08-02T13:15:50.454Z,19.3
2022-08-02T13:20:49.733Z,18.6
2022-08-02T13:26:23.262Z,19
2022-08-02T13:31:48.633Z,18.9
2022-08-02T13:37:22.233Z,18.9
2022-08-02T13:42:26.941Z,18.7
2022-08-02T13:48:05.510Z,19
2022-08-02T13:53:34.032Z,18.8
2022-08-02T13:59:54.898Z,19.2
2022-08-02T14:04:41.125Z,18.3
2022-08-02T14:10:14.712Z,18.9
2022-08-02T14:15:48.268Z,18.5
2022-08-02T14:21:21.800Z,19
2022-08-02T14:26:55.397Z,18.5
2022-08-02T14:32:57.794Z,18.7
2022-08-02T14:38:31.365Z,18.7
2022-08-02T14:44:42.026Z,18
2022-08-02T14:50:52.637Z,18.4
2022-08-02T14:57:03.294Z,18.4
2022-08-02T15:02:36.942Z,18.5
2022-08-02T15:08:10.358Z,17.9
2022-08-02T15:14:25.514Z,18.3
2022-08-02T15:19:57.673Z,18.2
2022-08-02T15:25:28.124Z,18.2
2022-08-02T15:30:53.479Z,18
2022-08-02T15:36:27.037Z,17.6
2022-08-02T15:42:00.572Z,18.6
2022-08-02T15:47:34.136Z,17.6
2022-08-02T15:53:07.696Z,17.8
2022-08-02T15:58:44.281Z,17.4
2022-08-02T16:04:14.836Z,17.7
2022-08-02T16:09:48.373Z,18.2
2022-08-02T16:14:53.060Z,17.7
2022-08-02T16:20:26.623Z,17.9
2022-08-02T16:26:00.174Z,17.9
2022-08-02T16:32:39.697Z,17.4
2022-08-02T16:38:13.231Z,17.5
2022-08-02T16:43:46.824Z,17.4
2022-08-02T16:50:05.768Z,17.6
2022-08-02T16:54:53.951Z,17.3
2022-08-02T17:00:27.488Z,17.1
2022-08-02T17:06:01.040Z,16.6
2022-08-02T17:11:38.703Z,16.8
2022-08-02T17:17:08.169Z,17.1
2022-08-02T17:22:41.724Z,16.1
2022-08-02T17:28:15.301Z,16.4
2022-08-02T17:33:40.648Z,16.4
2022-08-02T17:39:14.208Z,16.1
2022-08-02T17:44:49.266Z,16
2022-08-02T17:50:21.346Z,15.7
2022-08-02T17:55:54.889Z,15.6
2022-08-02T18:01:28.444Z,15.7
2022-08-02T18:07:04.050Z,15.5
2022-08-02T18:12:35.561Z,15.3
2022-08-02T18:18:09.164Z,15.1
2022-08-02T18:23:44.183Z,14.9
2022-08-02T18:29:16.263Z,14.5
2022-08-02T18:34:47.821Z,14.4
2022-08-02T18:40:19.290Z,14.2
2022-08-02T18:45:23.978Z,14.1
2022-08-02T18:51:36.751Z,13.8
2022-08-02T18:58:04.355Z,16.9
2022-08-02T19:02:41.700Z,13.4
2022-08-02T19:08:15.262Z,13.3
2022-08-02T19:13:48.823Z,12.9
2022-08-02T19:19:22.388Z,12.7
2022-08-02T19:24:55.926Z,12.5
2022-08-02T19:30:29.512Z,12.3
2022-08-02T19:36:01.809Z,12.1
2022-08-02T19:41:28.454Z,12
2022-08-02T19:47:01.993Z,11.7
2022-08-02T19:52:35.561Z,11.7
2022-08-02T19:58:09.111Z,11.4
2022-08-02T20:03:51.314Z,11.2
2022-08-02T20:09:16.891Z,11.1
2022-08-02T20:14:50.697Z,10.8
2022-08-02T20:20:23.343Z,10.7
2022-08-02T20:25:56.901Z,10.5
2022-08-02T20:31:30.672Z,10.4
2022-08-02T20:36:55.818Z,10.3
2022-08-02T20:43:06.471Z,10.1
2022-08-02T20:48:40.114Z,10
2022-08-02T20:54:13.565Z,12.6
2022-08-02T21:05:20.686Z,9.7
2022-08-02T21:10:55.529Z,9.5
2022-08-02T21:15:59.404Z,9.3
2022-08-02T21:21:32.495Z,9.2
2022-08-02T21:27:06.071Z,9.1
2022-08-02T21:32:39.612Z,9
2022-08-02T21:38:04.985Z,9
2022-08-02T21:43:39.219Z,9
2022-08-02T21:49:12.457Z,8.7
2022-08-02T21:54:45.898Z,8.7
2022-08-02T22:00:28.359Z,8.6
2022-08-02T22:05:52.792Z,8.5
2022-08-02T22:11:26.347Z,8.3
2022-08-02T22:16:59.880Z,8.2
2022-08-02T22:22:33.458Z,8.2
2022-08-02T22:28:37.413Z,8.1
2022-08-02T22:34:26.760Z,8.1
2022-08-02T22:40:09.024Z,8
2022-08-02T22:45:16.591Z,7.9
2022-08-02T22:50:50.133Z,7.9
2022-08-02T22:56:23.688Z,7.9
2022-08-02T22:59:07.627Z,9.8
2022-08-02T23:01:57.299Z,7.7
2022-08-02T23:07:36.357Z,7.6
2022-08-02T23:13:04.383Z,7.3
2022-08-02T23:18:37.921Z,7.2
2022-08-02T23:24:11.480Z,7.1
2022-08-02T23:29:45.048Z,7
2022-08-02T23:35:18.622Z,6.6
2022-08-02T23:41:29.250Z,6.4
2022-08-02T23:46:34.059Z,6.4
2022-08-02T23:52:07.480Z,6.4
2022-08-02T23:57:32.850Z,6.3
